createdAt,value
2018-08-28T00:02:29.145Z,83.91
2018-08-28T00:04:56.486Z,83.85
2018-08-28T00:07:23.698Z,83.59
2018-08-28T00:09:50.893Z,83.81
2018-08-28T00:12:18.115Z,82.78
2018-08-28T00:14:45.801Z,82.95
2018-08-28T00:17:13.425Z,83.39
2018-08-28T00:19:40.659Z,83.56
2018-08-28T00:22:07.864Z,83.51
2018-08-28T00:24:35.145Z,84.23
2018-08-28T00:27:02.683Z,82.90
2018-08-28T00:29:29.864Z,83.25
2018-08-28T00:31:57.056Z,83.40
2018-08-28T00:34:24.225Z,84.27
2018-08-28T00:36:51.477Z,84.47
2018-08-28T00:39:18.756Z,84.19
2018-08-28T00:41:46.047Z,84.40
2018-08-28T00:44:13.452Z,84.50
2018-08-28T00:46:40.719Z,83.96
2018-08-28T00:49:07.935Z,85.02
2018-08-28T00:51:35.233Z,84.02
2018-08-28T00:54:02.521Z,84.72
2018-08-28T00:56:29.708Z,83.85
2018-08-28T00:58:56.889Z,82.74
2018-08-28T01:01:24.172Z,84.32
2018-08-28T01:03:51.678Z,84.19
2018-08-28T01:06:18.833Z,84.96
2018-08-28T01:08:46.376Z,84.69
2018-08-28T01:11:13.541Z,85.00
2018-08-28T01:13:40.768Z,84.00
2018-08-28T01:16:08.112Z,84.83
2018-08-28T01:18:35.288Z,86.04
2018-08-28T01:21:02.445Z,83.62
2018-08-28T01:23:29.693Z,83.78
2018-08-28T01:25:56.970Z,84.93
2018-08-28T01:28:24.318Z,83.52
2018-08-28T01:30:51.736Z,82.58
2018-08-28T01:33:18.837Z,83.18
2018-08-28T01:35:46.127Z,82.80
2018-08-28T01:38:13.533Z,83.37
2018-08-28T01:40:40.854Z,82.99
2018-08-28T01:43:13.632Z,83.83
2018-08-28T01:45:40.805Z,83.55
2018-08-28T01:48:07.982Z,84.45
2018-08-28T01:50:35.297Z,84.98
2018-08-28T01:53:02.610Z,83.69
2018-08-28T01:55:29.812Z,85.32
2018-08-28T01:57:57.037Z,83.80
2018-08-28T02:00:24.237Z,84.20
2018-08-28T02:02:51.693Z,84.84
2018-08-28T02:05:18.988Z,85.11
2018-08-28T02:07:46.446Z,85.82
2018-08-28T02:10:13.653Z,85.97
2018-08-28T02:12:40.877Z,85.95
2018-08-28T02:15:08.140Z,85.65
2018-08-28T02:17:35.438Z,86.25
2018-08-28T02:20:02.719Z,86.35
2018-08-28T02:22:29.895Z,87.36
2018-08-28T02:24:57.049Z,87.51
2018-08-28T02:27:24.327Z,87.52
2018-08-28T02:29:51.594Z,88.39
2018-08-28T02:32:18.708Z,88.75
2018-08-28T02:34:46.520Z,88.09
2018-08-28T02:37:13.789Z,88.72
2018-08-28T02:39:41.025Z,88.78
2018-08-28T02:42:08.364Z,88.41
2018-08-28T02:44:35.564Z,88.65
2018-08-28T02:47:02.795Z,88.99
2018-08-28T02:49:29.989Z,89.08
2018-08-28T02:51:57.224Z,89.36
2018-08-28T02:54:24.547Z,89.92
2018-08-28T02:56:51.748Z,90.29
2018-08-28T02:59:18.879Z,90.08
2018-08-28T03:01:46.302Z,90.23
2018-08-28T03:04:13.636Z,90.83
2018-08-28T03:06:40.938Z,91.02
2018-08-28T03:09:08.297Z,91.24
2018-08-28T03:11:38.824Z,90.82
2018-08-28T03:14:05.954Z,90.83
2018-08-28T03:16:33.189Z,90.96
2018-08-28T03:19:00.547Z,91.29
2018-08-28T03:21:27.777Z,91.88
2018-08-28T03:23:58.460Z,91.88
2018-08-28T03:26:25.672Z,92.49
2018-08-28T03:28:53.145Z,92.43
2018-08-28T03:31:20.448Z,92.39
2018-08-28T03:33:47.627Z,92.00
2018-08-28T03:36:14.761Z,91.81
2018-08-28T03:38:42.158Z,92.32
2018-08-28T03:41:09.410Z,92.48
2018-08-28T03:43:36.626Z,91.79
2018-08-28T03:46:03.774Z,91.84
2018-08-28T03:48:31.556Z,92.48
2018-08-28T03:50:58.813Z,92.02
2018-08-28T03:53:25.980Z,92.46
2018-08-28T03:55:53.821Z,92.02
2018-08-28T03:58:21.013Z,92.33
2018-08-28T04:00:48.350Z,92.58
2018-08-28T04:03:15.565Z,93.04
2018-08-28T04:05:42.775Z,92.96
2018-08-28T04:08:10.376Z,92.57
2018-08-28T04:10:37.624Z,92.63
2018-08-28T04:13:04.997Z,93.36
2018-08-28T04:15:33.472Z,93.68
2018-08-28T04:18:01.571Z,94.24
2018-08-28T04:20:28.900Z,94.26
2018-08-28T04:22:56.021Z,94.49
2018-08-28T04:25:23.247Z,95.21
2018-08-28T04:27:50.956Z,94.92
2018-08-28T04:30:18.489Z,94.85
2018-08-28T04:32:46.830Z,94.31
2018-08-28T04:35:14.949Z,94.02
2018-08-28T04:37:42.837Z,94.57
2018-08-28T04:40:10.088Z,94.41
2018-08-28T04:42:37.313Z,94.93
2018-08-28T04:45:04.683Z,94.82
2018-08-28T04:47:31.992Z,94.72
2018-08-28T04:49:59.137Z,93.71
2018-08-28T04:52:26.264Z,93.96
2018-08-28T04:54:53.840Z,92.49
2018-08-28T04:57:24.373Z,93.21
2018-08-28T04:59:51.947Z,93.42
2018-08-28T05:02:19.134Z,93.54
2018-08-28T05:04:46.689Z,93.54
2018-08-28T05:07:13.849Z,93.45
2018-08-28T05:09:41.393Z,93.84
2018-08-28T05:12:10.668Z,93.63
2018-08-28T05:14:37.876Z,93.48
2018-08-28T05:17:05.088Z,92.42
2018-08-28T05:19:32.973Z,92.49
2018-08-28T05:22:00.450Z,92.92
2018-08-28T05:24:27.781Z,93.30
2018-08-28T05:26:55.000Z,93.59
2018-08-28T05:29:22.232Z,94.32
2018-08-28T05:31:49.824Z,91.89
2018-08-28T05:34:17.177Z,90.17
2018-08-28T05:36:44.322Z,90.46
2018-08-28T05:39:11.567Z,88.85
2018-08-28T05:41:38.712Z,87.99
2018-08-28T05:44:05.931Z,89.26
2018-08-28T05:46:33.785Z,88.81
2018-08-28T05:49:01.397Z,89.30
2018-08-28T05:51:28.764Z,87.62
2018-08-28T05:53:55.971Z,85.73
2018-08-28T05:56:23.156Z,85.50
2018-08-28T05:58:50.687Z,85.40
2018-08-28T06:01:17.859Z,86.11
2018-08-28T06:03:45.004Z,86.48
2018-08-28T06:06:12.143Z,85.65
2018-08-28T06:08:39.455Z,85.50
2018-08-28T06:11:06.765Z,84.65
2018-08-28T06:13:35.632Z,83.58
2018-08-28T06:16:02.840Z,83.26
2018-08-28T06:18:29.967Z,82.67
2018-08-28T06:20:57.242Z,82.52
2018-08-28T06:23:24.541Z,81.75
2018-08-28T06:25:51.668Z,81.52
2018-08-28T06:28:18.801Z,81.02
2018-08-28T06:30:45.944Z,80.59
2018-08-28T06:33:13.104Z,81.06
2018-08-28T06:35:40.412Z,80.51
2018-08-28T06:38:07.579Z,78.88
2018-08-28T06:40:34.910Z,78.64
2018-08-28T06:43:02.047Z,78.89
2018-08-28T06:45:29.276Z,78.02
2018-08-28T06:47:56.624Z,76.52
2018-08-28T06:50:23.721Z,76.03
2018-08-28T06:52:50.897Z,75.62
2018-08-28T06:55:18.133Z,74.01
2018-08-28T06:57:45.312Z,73.68
2018-08-28T07:00:12.586Z,73.60
2018-08-28T07:02:39.704Z,72.77
2018-08-28T07:05:06.949Z,71.98
2018-08-28T07:07:34.191Z,72.67
2018-08-28T07:10:01.318Z,70.91
2018-08-28T07:12:28.775Z,70.68
2018-08-28T07:14:55.996Z,70.68
2018-08-28T07:17:23.147Z,70.36
2018-08-28T07:19:50.293Z,69.64
2018-08-28T07:22:17.497Z,69.21
2018-08-28T07:24:44.651Z,68.15
2018-08-28T07:27:11.806Z,67.45
2018-08-28T07:29:38.979Z,67.27
2018-08-28T07:32:06.123Z,66.79
2018-08-28T07:34:33.332Z,67.20
2018-08-28T07:37:00.577Z,66.36
2018-08-28T07:39:27.685Z,64.80
2018-08-28T07:41:54.833Z,65.24
2018-08-28T07:44:22.494Z,64.10
2018-08-28T07:46:50.772Z,62.75
2018-08-28T07:49:17.960Z,62.69
2018-08-28T07:51:45.359Z,62.09
2018-08-28T07:54:13.396Z,62.06
2018-08-28T07:56:40.495Z,62.14
2018-08-28T07:59:07.708Z,61.65
2018-08-28T08:01:34.943Z,61.51
2018-08-28T08:04:02.360Z,59.66
2018-08-28T08:06:29.612Z,59.68
2018-08-28T08:08:56.795Z,59.34
2018-08-28T08:11:23.953Z,58.78
2018-08-28T08:13:51.175Z,59.10
2018-08-28T08:16:18.527Z,58.62
2018-08-28T08:18:45.560Z,59.07
2018-08-28T08:21:12.852Z,58.55
2018-08-28T08:23:40.013Z,57.07
2018-08-28T08:26:07.263Z,57.75
2018-08-28T08:28:34.508Z,57.26
2018-08-28T08:31:01.733Z,56.43
2018-08-28T08:33:28.909Z,56.67
2018-08-28T08:35:56.179Z,55.34
2018-08-28T08:38:23.365Z,55.10
2018-08-28T08:40:50.503Z,53.49
2018-08-28T08:43:17.870Z,53.49
2018-08-28T08:45:46.382Z,54.09
2018-08-28T08:48:13.995Z,54.51
2018-08-28T08:50:41.644Z,52.97
2018-08-28T08:53:09.017Z,51.24
2018-08-28T08:55:36.239Z,52.26
2018-08-28T08:58:03.889Z,52.58
2018-08-28T09:00:31.980Z,51.04
2018-08-28T09:02:59.463Z,51.95
2018-08-28T09:05:26.747Z,51.73
2018-08-28T09:07:54.641Z,51.01
2018-08-28T09:10:22.288Z,50.33
2018-08-28T09:12:50.021Z,49.69
2018-08-28T09:15:17.738Z,50.89
2018-08-28T09:17:45.173Z,49.22
2018-08-28T09:20:12.776Z,50.12
2018-08-28T09:22:40.727Z,47.42
2018-08-28T09:25:08.193Z,47.15
2018-08-28T09:27:35.572Z,46.21
2018-08-28T09:30:02.919Z,45.09
2018-08-28T09:32:30.027Z,45.47
2018-08-28T09:34:57.295Z,46.24
2018-08-28T09:37:24.585Z,49.66
2018-08-28T09:39:51.757Z,47.83
2018-08-28T09:42:19.065Z,47.09
2018-08-28T09:44:46.177Z,47.07
2018-08-28T09:47:13.400Z,45.52
2018-08-28T09:49:40.742Z,43.28
2018-08-28T09:52:07.950Z,43.64
2018-08-28T09:54:35.165Z,43.40
2018-08-28T09:57:02.557Z,42.62
2018-08-28T09:59:29.808Z,43.11
2018-08-28T10:01:57.139Z,44.13
2018-08-28T10:04:24.447Z,44.86
2018-08-28T10:06:51.565Z,42.85
2018-08-28T10:09:18.908Z,43.11
2018-08-28T10:11:54.650Z,42.30
2018-08-28T10:14:21.839Z,42.71
2018-08-28T10:16:49.093Z,42.47
2018-08-28T10:19:16.403Z,46.29
2018-08-28T10:21:43.750Z,44.50
2018-08-28T10:24:11.294Z,40.75
2018-08-28T10:26:38.671Z,40.49
2018-08-28T10:29:05.811Z,39.27
2018-08-28T10:31:33.219Z,38.30
2018-08-28T10:34:00.515Z,39.81
2018-08-28T10:36:27.612Z,42.17
2018-08-28T10:38:54.789Z,39.58
2018-08-28T10:41:22.249Z,36.70
2018-08-28T10:43:49.690Z,37.86
2018-08-28T10:46:16.902Z,34.58
2018-08-28T10:48:44.221Z,33.49
2018-08-28T10:51:11.481Z,32.19
2018-08-28T10:53:38.716Z,35.30
2018-08-28T10:56:07.876Z,34.80
2018-08-28T10:58:35.012Z,34.88
2018-08-28T11:01:02.361Z,35.12
2018-08-28T11:03:29.700Z,36.70
2018-08-28T11:05:56.848Z,38.38
2018-08-28T11:08:24.500Z,36.94
2018-08-28T11:10:51.785Z,37.71
2018-08-28T11:13:19.013Z,38.55
2018-08-28T11:15:46.309Z,42.69
2018-08-28T11:18:13.644Z,37.26
2018-08-28T11:20:40.856Z,35.58
2018-08-28T11:23:08.893Z,33.82
2018-08-28T11:25:36.109Z,33.78
2018-08-28T11:28:03.484Z,33.96
2018-08-28T11:30:30.725Z,34.32
2018-08-28T11:32:57.925Z,35.75
2018-08-28T11:35:25.128Z,36.96
2018-08-28T11:37:52.236Z,38.29
2018-08-28T11:40:22.429Z,38.89
2018-08-28T11:42:49.652Z,38.34
2018-08-28T11:45:16.920Z,37.81
2018-08-28T11:47:44.075Z,38.50
2018-08-28T11:50:11.401Z,41.08
2018-08-28T11:52:38.528Z,38.11
2018-08-28T11:55:06.122Z,36.69
2018-08-28T11:57:33.372Z,38.65
2018-08-28T12:00:00.721Z,37.99
2018-08-28T12:02:27.953Z,38.60
2018-08-28T12:04:55.181Z,36.84
2018-08-28T12:07:22.544Z,38.40
2018-08-28T12:09:49.816Z,37.18
2018-08-28T12:12:17.186Z,37.99
2018-08-28T12:14:44.438Z,38.15
2018-08-28T12:17:14.557Z,38.72
2018-08-28T12:19:42.405Z,39.21
2018-08-28T12:22:09.671Z,39.15
2018-08-28T12:24:36.899Z,39.14
2018-08-28T12:27:04.328Z,37.61
2018-08-28T12:29:35.750Z,39.04
2018-08-28T12:32:03.712Z,36.75
2018-08-28T12:34:31.484Z,38.80
2018-08-28T12:36:59.665Z,36.32
2018-08-28T12:39:30.627Z,33.74
2018-08-28T12:41:57.845Z,35.39
2018-08-28T12:44:27.924Z,33.34
2018-08-28T12:46:58.504Z,33.14
2018-08-28T12:49:26.700Z,34.24
2018-08-28T12:51:54.077Z,34.56
2018-08-28T12:54:21.291Z,35.34
2018-08-28T12:56:53.255Z,36.07
2018-08-28T12:59:20.984Z,38.29
2018-08-28T13:01:48.305Z,35.03
2018-08-28T13:04:17.553Z,35.40
2018-08-28T13:06:51.444Z,34.75
2018-08-28T13:09:20.200Z,37.63
2018-08-28T13:11:48.433Z,36.32
2018-08-28T13:14:15.852Z,38.79
2018-08-28T13:16:42.986Z,37.30
2018-08-28T13:19:10.174Z,36.73
2018-08-28T13:21:38.280Z,36.81
2018-08-28T13:24:05.442Z,38.64
2018-08-28T13:26:32.594Z,39.01
2018-08-28T13:29:00.355Z,38.40
2018-08-28T13:31:27.538Z,38.44
2018-08-28T13:33:54.720Z,37.61
2018-08-28T13:36:22.016Z,37.70
2018-08-28T13:38:49.240Z,38.22
2018-08-28T13:41:16.481Z,38.09
2018-08-28T13:43:43.683Z,38.27
2018-08-28T13:46:10.869Z,35.96
2018-08-28T13:48:38.141Z,37.34
2018-08-28T13:51:05.581Z,39.45
2018-08-28T13:53:32.752Z,38.97
2018-08-28T13:56:00.558Z,38.85
2018-08-28T13:58:27.994Z,38.06
2018-08-28T14:00:55.272Z,37.20
2018-08-28T14:03:22.586Z,38.91
2018-08-28T14:05:49.844Z,39.19
2018-08-28T14:08:17.037Z,40.67
2018-08-28T14:10:44.196Z,40.39
2018-08-28T14:13:11.459Z,37.46
2018-08-28T14:15:38.757Z,38.04
2018-08-28T14:18:05.904Z,38.01
2018-08-28T14:20:34.161Z,38.45
2018-08-28T14:23:01.625Z,36.52
2018-08-28T14:25:28.860Z,36.92
2018-08-28T14:27:56.304Z,38.85
2018-08-28T14:30:23.423Z,38.90
2018-08-28T14:32:50.609Z,37.86
2018-08-28T14:35:17.808Z,38.36
2018-08-28T14:37:45.877Z,37.99
2018-08-28T14:40:13.004Z,37.07
2018-08-28T14:42:40.768Z,37.14
2018-08-28T14:45:07.880Z,36.93
2018-08-28T14:47:35.021Z,38.40
2018-08-28T14:50:02.358Z,37.77
2018-08-28T14:52:29.425Z,38.28
2018-08-28T14:54:56.547Z,40.83
2018-08-28T14:57:23.831Z,38.74
2018-08-28T14:59:51.660Z,39.80
2018-08-28T15:02:18.880Z,40.67
2018-08-28T15:04:46.040Z,39.85
2018-08-28T15:07:13.889Z,38.73
2018-08-28T15:09:42.145Z,39.30
2018-08-28T15:12:11.105Z,39.15
2018-08-28T15:14:38.925Z,39.29
2018-08-28T15:17:06.780Z,39.57
2018-08-28T15:19:34.246Z,41.64
2018-08-28T15:22:03.253Z,43.46
2018-08-28T15:24:31.858Z,40.22
2018-08-28T15:26:59.265Z,44.20
2018-08-28T15:29:26.899Z,41.95
2018-08-28T15:31:54.679Z,42.33
2018-08-28T15:34:21.861Z,43.45
2018-08-28T15:36:49.098Z,39.84
2018-08-28T15:39:16.697Z,41.69
2018-08-28T15:41:44.509Z,41.74
2018-08-28T15:44:12.471Z,37.60
2018-08-28T15:46:39.917Z,38.52
2018-08-28T15:49:07.648Z,39.97
2018-08-28T15:51:35.677Z,41.68
2018-08-28T15:54:03.320Z,39.21
2018-08-28T15:56:31.020Z,38.84
2018-08-28T15:58:58.475Z,39.24
2018-08-28T16:01:26.564Z,39.44
2018-08-28T16:03:55.881Z,41.01
2018-08-28T16:06:23.274Z,38.88
2018-08-28T16:08:50.562Z,39.39
2018-08-28T16:13:44.813Z,39.52
2018-08-28T16:16:11.966Z,40.12
2018-08-28T16:18:39.800Z,39.40
2018-08-28T16:21:07.805Z,39.07
2018-08-28T16:23:37.660Z,39.83
2018-08-28T16:26:04.841Z,40.45
2018-08-28T16:28:32.052Z,41.40
2018-08-28T16:30:59.347Z,42.24
2018-08-28T16:33:26.614Z,40.24
2018-08-28T16:35:53.804Z,39.46
2018-08-28T16:38:20.956Z,40.36
2018-08-28T16:40:48.218Z,41.25
2018-08-28T16:43:15.447Z,42.58
2018-08-28T16:45:43.810Z,43.59
2018-08-28T16:48:11.509Z,40.79
2018-08-28T16:50:38.705Z,41.02
2018-08-28T16:53:05.897Z,40.83
2018-08-28T16:55:33.139Z,40.59
2018-08-28T16:58:00.279Z,40.58
2018-08-28T17:00:27.407Z,40.26
2018-08-28T17:02:54.611Z,41.50
2018-08-28T17:05:21.733Z,44.37
2018-08-28T17:07:48.857Z,42.62
2018-08-28T17:10:16.421Z,42.89
2018-08-28T17:12:43.888Z,42.38
2018-08-28T17:15:11.344Z,42.81
2018-08-28T17:17:38.899Z,44.98
2018-08-28T17:20:06.096Z,46.64
2018-08-28T17:22:33.203Z,47.81
2018-08-28T17:25:00.996Z,48.35
2018-08-28T17:27:28.200Z,50.38
2018-08-28T17:29:55.359Z,52.48
2018-08-28T17:32:22.538Z,53.45
2018-08-28T17:34:49.721Z,53.79
2018-08-28T17:37:16.870Z,55.14
2018-08-28T17:39:44.204Z,55.92
2018-08-28T17:42:11.387Z,56.61
2018-08-28T17:44:38.618Z,57.21
2018-08-28T17:47:05.839Z,57.33
2018-08-28T17:49:33.006Z,57.74
2018-08-28T17:52:00.124Z,56.85
2018-08-28T17:54:27.369Z,57.33
2018-08-28T17:56:54.520Z,57.01
2018-08-28T17:59:21.865Z,58.07
2018-08-28T18:01:49.052Z,59.07
2018-08-28T18:04:16.154Z,59.24
2018-08-28T18:06:43.324Z,60.08
2018-08-28T18:09:10.547Z,61.13
2018-08-28T18:11:37.721Z,60.79
2018-08-28T18:14:04.879Z,62.22
2018-08-28T18:16:32.232Z,62.15
2018-08-28T18:19:00.003Z,62.27
2018-08-28T18:21:27.110Z,62.43
2018-08-28T18:23:54.458Z,62.96
2018-08-28T18:26:21.584Z,63.73
2018-08-28T18:28:48.763Z,63.52
2018-08-28T18:31:15.924Z,64.50
2018-08-28T18:33:43.080Z,65.15
2018-08-28T18:36:10.206Z,65.12
2018-08-28T18:38:37.536Z,65.80
2018-08-28T18:41:04.871Z,66.13
2018-08-28T18:43:31.886Z,65.99
2018-08-28T18:45:59.058Z,67.16
2018-08-28T18:48:26.178Z,67.53
2018-08-28T18:50:53.301Z,67.85
2018-08-28T18:53:20.538Z,68.58
2018-08-28T18:55:47.673Z,68.96
2018-08-28T18:58:14.867Z,68.83
2018-08-28T19:00:42.128Z,69.01
2018-08-28T19:03:09.255Z,69.25
2018-08-28T19:05:36.427Z,70.20
2018-08-28T19:08:07.237Z,70.16
2018-08-28T19:10:34.358Z,70.15
2018-08-28T19:13:01.475Z,70.14
2018-08-28T19:15:28.759Z,70.57
2018-08-28T19:17:55.883Z,70.57
2018-08-28T19:20:23.034Z,70.76
2018-08-28T19:22:50.292Z,71.24
2018-08-28T19:25:17.418Z,71.13
2018-08-28T19:27:44.535Z,71.65
2018-08-28T19:30:11.778Z,72.32
2018-08-28T19:32:38.888Z,72.38
2018-08-28T19:35:06.090Z,72.94
2018-08-28T19:37:33.346Z,72.91
2018-08-28T19:40:00.480Z,73.76
2018-08-28T19:42:27.645Z,73.42
2018-08-28T19:44:55.826Z,73.80
2018-08-28T19:47:23.008Z,74.41
2018-08-28T19:49:50.140Z,74.85
2018-08-28T19:52:17.320Z,74.43
2018-08-28T19:54:44.436Z,75.11
2018-08-28T19:57:11.565Z,75.60
2018-08-28T19:59:38.730Z,75.09
2018-08-28T20:02:05.893Z,75.54
2018-08-28T20:04:33.022Z,75.80
2018-08-28T20:07:00.235Z,75.62
2018-08-28T20:09:27.365Z,75.69
2018-08-28T20:11:54.486Z,76.04
2018-08-28T20:14:21.833Z,76.31
2018-08-28T20:16:48.984Z,76.15
2018-08-28T20:19:16.105Z,77.17
2018-08-28T20:21:43.262Z,77.27
2018-08-28T20:24:10.485Z,77.52
2018-08-28T20:26:37.635Z,78.12
2018-08-28T20:29:04.951Z,77.91
2018-08-28T20:31:32.089Z,78.17
2018-08-28T20:33:59.229Z,78.31
2018-08-28T20:36:26.490Z,78.63
2018-08-28T20:38:53.667Z,78.91
2018-08-28T20:41:20.828Z,79.38
2018-08-28T20:43:48.177Z,79.17
2018-08-28T20:46:15.340Z,79.28
2018-08-28T20:48:42.549Z,79.33
2018-08-28T20:51:09.820Z,79.49
2018-08-28T20:53:36.996Z,80.09
2018-08-28T20:56:04.223Z,79.68
2018-08-28T20:58:32.799Z,80.08
2018-08-28T21:00:59.941Z,79.94
2018-08-28T21:03:27.067Z,80.38
2018-08-28T21:05:54.304Z,80.05
2018-08-28T21:08:22.461Z,80.82
2018-08-28T21:10:49.551Z,80.64
2018-08-28T21:13:16.772Z,80.45
2018-08-28T21:15:43.915Z,80.62
2018-08-28T21:18:17.845Z,80.60
2018-08-28T21:20:45.269Z,80.97
2018-08-28T21:23:12.396Z,81.20
2018-08-28T21:25:39.643Z,81.69
2018-08-28T21:28:06.779Z,81.45
2018-08-28T21:30:33.965Z,82.01
2018-08-28T21:33:01.173Z,81.97
2018-08-28T21:35:28.284Z,82.22
2018-08-28T21:37:55.402Z,82.11
2018-08-28T21:40:22.621Z,82.96
2018-08-28T21:42:49.739Z,83.26
2018-08-28T21:45:16.907Z,82.91
2018-08-28T21:47:44.147Z,83.75
2018-08-28T21:50:11.274Z,83.46
2018-08-28T21:52:38.425Z,83.50
2018-08-28T21:55:05.717Z,83.64
2018-08-28T21:57:32.887Z,83.82
2018-08-28T22:00:00.050Z,83.80
2018-08-28T22:02:27.227Z,83.85
2018-08-28T22:04:54.355Z,84.26
2018-08-28T22:07:27.187Z,84.58
2018-08-28T22:09:54.313Z,84.96
2018-08-28T22:12:21.434Z,84.26
2018-08-28T22:14:48.680Z,84.76
2018-08-28T22:17:15.786Z,84.75
2018-08-28T22:19:42.941Z,85.55
2018-08-28T22:22:10.220Z,85.81
2018-08-28T22:24:37.333Z,85.94
2018-08-28T22:27:04.497Z,85.84
2018-08-28T22:29:31.728Z,85.17
2018-08-28T22:31:58.861Z,85.08
2018-08-28T22:34:26.063Z,85.36
2018-08-28T22:36:53.298Z,85.21
2018-08-28T22:39:20.448Z,85.24
2018-08-28T22:41:47.643Z,86.11
2018-08-28T22:44:14.848Z,85.93
2018-08-28T22:46:42.027Z,85.93
2018-08-28T22:49:09.156Z,86.01
2018-08-28T22:51:36.398Z,86.10
2018-08-28T22:54:03.589Z,86.41
2018-08-28T22:56:30.661Z,86.83
2018-08-28T22:58:57.814Z,86.74
2018-08-28T23:01:25.216Z,86.51
2018-08-28T23:03:52.311Z,86.65
2018-08-28T23:06:19.518Z,86.57
2018-08-28T23:08:46.635Z,86.86
2018-08-28T23:11:14.642Z,87.03
2018-08-28T23:13:41.933Z,87.42
2018-08-28T23:16:09.039Z,87.08
2018-08-28T23:18:36.144Z,87.34
2018-08-28T23:21:03.324Z,86.80
2018-08-28T23:23:30.452Z,87.22
2018-08-28T23:25:57.573Z,86.82
2018-08-28T23:28:24.928Z,87.52
2018-08-28T23:30:52.037Z,87.37
2018-08-28T23:33:19.159Z,87.16
2018-08-28T23:35:46.370Z,87.52
2018-08-28T23:38:13.482Z,87.50
2018-08-28T23:40:40.594Z,87.38
2018-08-28T23:43:07.784Z,87.52
2018-08-28T23:45:34.901Z,87.57
2018-08-28T23:48:02.071Z,87.45
2018-08-28T23:50:29.233Z,88.19
2018-08-28T23:52:56.344Z,88.07
2018-08-28T23:55:23.490Z,87.96
2018-08-28T23:57:50.735Z,88.44
